Wellston, Michigan
Current Conditions -  °F | °C
As of 8:15 AM on Sunday 23 Nov 2014 (Local Time) from KMBL Reporting Station
Overcast Overcast  
Wind Chill: 42°   Ceiling: 300
Heat Index: 46°   Visibility: 1mi
Dew Point: 45°   Wind: 9mph
Humidity: 93%   Direction: 180°S
Pressure: 29.75"   Gusts: NA
Location:  44.22°N, 85.96°W
Report Text: KMBL 231315Z AUTO 18008KT 160V220 1SM OVC003 08/07 A2975 RMK AO1
Loading
Personal Weather Stations






























Interactive Weather Map New forecast layout! Learn more

10-Day Weather Forecast

Advertisements
Track Severe Weather on mobile